Loftus, United Kingdom
Current Conditions -  °F | °C
As of 9:20 AM on Friday 28 Nov 2014 (Local Time) from EGNV Reporting Station
Haze Haze  
Wind Chill: 10°   Ceiling: 1900
Heat Index: 10°   Visibility: 1.8mi
Dew Point:   Wind: 7mph
Humidity: 94%   Direction: 50°NE
Pressure: 29.74"   Gusts: NA
Location:  54.56°N, 0.89°W
Report Text: EGNV 280920Z 05006KT 3000 HZ SCT009 BKN019 10/09 Q1007
Loading
Personal Weather Stations






























Interactive Weather Map New forecast layout! Learn more

10-Day Weather Forecast

Advertisements
Track Severe Weather on mobile